Time;durP1;ratioP1;P1;durP2;ratioP2;P2;SDS_P1;SDS_P2;PMS_P1;PMS_P2;Temp;Humidity;BMP_temperature;BMP_pressure;BME280_temperature;BME280_humidity;BME280_pressure;Samples;Min_cycle;Max_cycle;Signal;HPM_P1;HPM_P2
2021/04/26 00:00:21;;;;;;;2.67;0.77;;;;;;;1.89;50.39;101391.25;5001493;28;20089;-71
2021/04/26 00:02:47;;;;;;;3.97;0.65;;;;;;;1.87;49.52;101392.91;5001749;28;20026;-71
2021/04/26 00:05:14;;;;;;;1.92;0.50;;;;;;;1.82;49.93;101387.50;5003535;28;20409;-71
2021/04/26 00:07:40;;;;;;;3.78;1.15;;;;;;;1.75;50.37;101393.25;5000087;28;20469;-71
2021/04/26 00:10:06;;;;;;;2.28;0.90;;;;;;;1.69;50.77;101393.00;5003386;28;20133;-71
2021/04/26 00:12:31;;;;;;;1.90;0.52;;;;;;;1.63;50.59;101387.53;5002684;28;20073;-70
2021/04/26 00:14:57;;;;;;;2.00;0.55;;;;;;;1.48;51.07;101383.41;5000437;28;20534;-71
2021/04/26 00:17:22;;;;;;;1.70;0.63;;;;;;;1.42;52.23;101388.34;5003049;28;20037;-71
2021/04/26 00:19:47;;;;;;;2.90;0.93;;;;;;;1.34;52.03;101383.63;5002283;28;20042;-72
2021/04/26 00:22:13;;;;;;;3.60;1.00;;;;;;;1.27;52.10;101388.53;5001341;28;20136;-71
2021/04/26 00:24:39;;;;;;;2.40;0.70;;;;;;;1.17;52.87;101390.66;5003739;28;20508;-71
2021/04/26 00:27:05;;;;;;;2.55;0.50;;;;;;;1.17;52.60;101375.06;5001565;28;20037;-71
2021/04/26 00:29:31;;;;;;;2.50;0.90;;;;;;;1.17;51.67;101373.34;5002133;28;20037;-71
2021/04/26 00:31:56;;;;;;;2.90;0.83;;;;;;;1.16;51.85;101374.19;5003391;28;20131;-70
2021/04/26 00:34:21;;;;;;;3.80;1.17;;;;;;;1.16;52.43;101373.31;5000828;28;20050;-71
2021/04/26 00:36:46;;;;;;;4.60;1.47;;;;;;;1.15;52.32;101377.59;5002523;28;20033;-71
2021/04/26 00:39:12;;;;;;;5.40;1.70;;;;;;;1.11;52.28;101369.59;5002824;28;20046;-71
2021/04/26 00:41:37;;;;;;;3.30;1.20;;;;;;;1.04;52.49;101376.22;5000515;28;20038;-71
2021/04/26 00:44:03;;;;;;;5.50;2.27;;;;;;;0.95;53.03;101373.22;5003131;28;20033;-71
2021/04/26 00:46:28;;;;;;;4.90;2.17;;;;;;;0.87;53.91;101375.44;5002162;28;20070;-71
2021/04/26 00:48:54;;;;;;;4.77;1.77;;;;;;;0.74;54.68;101376.56;5001151;28;20038;-71
2021/04/26 00:51:20;;;;;;;3.40;1.60;;;;;;;0.63;54.55;101376.06;5001761;28;20033;-71
2021/04/26 00:53:46;;;;;;;5.90;2.33;;;;;;;0.60;54.61;101385.41;5001507;28;20031;-71
2021/04/26 00:56:11;;;;;;;6.53;2.60;;;;;;;0.44;55.45;101382.06;5001386;28;20108;-71
2021/04/26 00:58:37;;;;;;;7.07;1.87;;;;;;;0.28;55.58;101382.16;4979866;28;20031;-71
2021/04/26 01:01:03;;;;;;;2.70;1.00;;;;;;;0.19;56.40;101381.72;5001616;28;20036;-71
2021/04/26 01:03:29;;;;;;;2.63;1.30;;;;;;;-0.02;56.45;101377.22;5001560;28;20045;-70
2021/04/26 01:05:56;;;;;;;3.90;1.50;;;;;;;-0.12;57.00;101382.78;5000545;28;20041;-71
2021/04/26 01:08:23;;;;;;;3.90;1.10;;;;;;;-0.08;57.11;101376.94;4997003;28;20027;-71
2021/04/26 01:11:08;;;;;;;2.67;0.80;;;;;;;0.02;56.84;101374.78;4996519;28;20034;-72
2021/04/26 01:13:56;;;;;;;1.83;0.77;;;;;;;0.06;57.63;101376.72;5000460;28;20033;-71
2021/04/26 01:16:33;;;;;;;4.47;0.80;;;;;;;0.10;56.46;101376.94;4999005;28;20191;-71
2021/04/26 01:19:17;;;;;;;2.90;0.93;;;;;;;0.09;56.59;101385.56;4997608;28;20038;-71
2021/04/26 01:22:00;;;;;;;3.03;0.73;;;;;;;0.07;57.07;101389.78;4996528;28;20049;-71
2021/04/26 01:24:57;;;;;;;4.93;1.00;;;;;;;0.06;56.19;101377.63;4998812;28;20061;-71
2021/04/26 01:27:36;;;;;;;2.07;0.70;;;;;;;-0.02;56.63;101382.41;4998277;28;20379;-72
2021/04/26 01:30:06;;;;;;;2.00;0.70;;;;;;;0.01;56.47;101380.81;4996849;28;20505;-71
2021/04/26 01:33:06;;;;;;;2.58;0.95;;;;;;;-0.12;57.52;101372.41;4995276;28;20035;-71
2021/04/26 01:35:37;;;;;;;3.20;1.13;;;;;;;-0.21;57.23;101377.09;4998558;28;20042;-71
2021/04/26 01:38:28;;;;;;;5.80;1.77;;;;;;;-0.31;59.05;101377.47;4999364;28;20031;-71
2021/04/26 01:40:57;;;;;;;4.07;1.08;;;;;;;-0.36;58.40;101378.94;4982444;28;20037;-71
2021/04/26 01:43:26;;;;;;;3.37;1.17;;;;;;;-0.41;59.86;101377.81;5001764;28;20076;-71
2021/04/26 01:45:54;;;;;;;2.93;1.03;;;;;;;-0.50;61.07;101375.59;4986106;28;20040;-71
2021/04/26 01:48:21;;;;;;;3.53;1.13;;;;;;;-0.62;61.95;101381.06;4999965;28;20034;-71
2021/04/26 01:50:50;;;;;;;2.53;1.07;;;;;;;-0.69;60.65;101385.00;4999967;28;20091;-70
2021/04/26 01:53:20;;;;;;;3.80;1.50;;;;;;;-0.78;60.64;101389.72;5002184;28;20029;-71
2021/04/26 01:55:46;;;;;;;4.77;1.13;;;;;;;-0.91;61.77;101389.88;4997269;28;20192;-71
2021/04/26 01:58:14;;;;;;;5.17;1.63;;;;;;;-1.11;62.76;101389.69;4999562;28;20049;-70
2021/04/26 02:00:40;;;;;;;7.13;2.07;;;;;;;-1.17;63.31;101388.47;5002561;28;20034;-71
2021/04/26 02:03:10;;;;;;;9.03;1.67;;;;;;;-1.16;62.88;101391.13;5000465;28;20030;-71
2021/04/26 02:05:49;;;;;;;2.63;1.10;;;;;;;-1.11;61.64;101388.78;4998583;28;20039;-71
2021/04/26 02:08:16;;;;;;;2.30;1.00;;;;;;;-1.18;63.30;101384.06;5000109;28;20033;-71
2021/04/26 02:10:43;;;;;;;6.13;2.07;;;;;;;-1.18;62.46;101382.41;4998714;28;20027;-71
2021/04/26 02:13:09;;;;;;;5.17;1.50;;;;;;;-1.20;62.25;101377.94;5000778;28;20253;-71
2021/04/26 02:15:37;;;;;;;4.70;1.50;;;;;;;-1.24;62.99;101375.97;4999368;28;20073;-71
2021/04/26 02:18:03;;;;;;;2.80;1.20;;;;;;;-1.30;62.79;101376.53;5015253;28;20054;-70
2021/04/26 02:20:29;;;;;;;5.70;2.73;;;;;;;-1.37;63.00;101377.88;5001036;28;20034;-70
2021/04/26 02:22:54;;;;;;;3.40;1.40;;;;;;;-1.46;63.62;101374.81;5000307;28;20041;-71
2021/04/26 02:25:20;;;;;;;4.77;1.37;;;;;;;-1.50;64.08;101370.25;5000509;28;20589;-71
2021/04/26 02:27:46;;;;;;;3.67;1.00;;;;;;;-1.54;63.36;101370.91;5001091;28;20030;-71
2021/04/26 02:30:13;;;;;;;3.47;1.23;;;;;;;-1.55;63.81;101370.00;4999500;28;20026;-70
2021/04/26 02:33:03;;;;;;;4.73;1.30;;;;;;;-1.60;63.50;101370.53;4999362;28;20164;-71
2021/04/26 02:36:00;;;;;;;2.47;0.87;;;;;;;-1.67;63.51;101369.31;4985040;28;20046;-71
2021/04/26 02:38:29;;;;;;;3.47;0.90;;;;;;;-1.73;64.35;101362.88;5001001;28;20039;-71
2021/04/26 02:41:13;;;;;;;3.20;1.30;;;;;;;-1.79;65.10;101358.25;5003094;28;20033;-71
2021/04/26 02:43:48;;;;;;;4.83;1.50;;;;;;;-1.79;66.53;101359.13;4985995;28;20035;-71
2021/04/26 02:46:15;;;;;;;4.87;0.97;;;;;;;-1.71;65.68;101363.88;5001575;28;20069;-70
2021/04/26 02:48:44;;;;;;;2.73;1.03;;;;;;;-1.70;64.79;101360.47;5003415;28;20030;-71
2021/04/26 02:51:10;;;;;;;2.47;0.80;;;;;;;-1.79;65.71;101366.03;4998476;28;20031;-71
2021/04/26 02:53:38;;;;;;;2.87;0.97;;;;;;;-1.90;66.72;101360.22;5005317;28;20044;-71
2021/04/26 02:56:08;;;;;;;3.13;1.00;;;;;;;-1.88;66.01;101361.22;4987930;28;20064;-71
2021/04/26 02:58:38;;;;;;;1.77;0.73;;;;;;;-1.84;65.79;101359.69;5002806;28;20120;-71
2021/04/26 03:01:12;;;;;;;2.33;1.03;;;;;;;-1.86;67.13;101359.63;5002291;28;20064;-71
2021/04/26 03:03:45;;;;;;;2.00;0.87;;;;;;;-1.86;66.79;101359.63;4999636;28;20030;-71
2021/04/26 03:06:14;;;;;;;1.73;0.67;;;;;;;-1.84;66.45;101357.09;5002668;28;20041;-71
2021/04/26 03:09:00;;;;;;;2.47;0.87;;;;;;;-1.86;67.46;101361.28;5002125;28;20967;-71
2021/04/26 03:11:31;;;;;;;9.47;1.67;;;;;;;-1.88;68.08;101365.50;5002107;28;20034;-72
2021/04/26 03:14:00;;;;;;;5.95;2.70;;;;;;;-1.94;67.82;101359.97;4987343;28;20037;-71
2021/04/26 03:16:27;;;;;;;6.63;2.87;;;;;;;-2.03;66.76;101361.22;5001407;28;20374;-71
2021/04/26 03:18:52;;;;;;;4.70;1.67;;;;;;;-2.05;66.23;101359.34;5003867;28;20124;-71
2021/04/26 03:21:18;;;;;;;5.23;1.50;;;;;;;-2.12;66.45;101358.13;5003139;28;20557;-71
2021/04/26 03:23:48;;;;;;;4.80;2.30;;;;;;;-2.17;66.37;101354.38;5001123;28;20062;-70
2021/04/26 03:26:15;;;;;;;2.63;0.90;;;;;;;-2.19;66.41;101360.25;4997180;28;20038;-70
2021/04/26 03:28:42;;;;;;;6.30;1.20;;;;;;;-2.27;67.76;101349.47;5002585;28;20599;-71
2021/04/26 03:31:10;;;;;;;4.47;1.40;;;;;;;-2.26;66.82;101349.53;5004493;28;20490;-71
2021/04/26 03:33:45;;;;;;;3.27;1.33;;;;;;;-2.28;67.71;101339.91;4999498;28;20042;-71
2021/04/26 03:36:14;;;;;;;3.37;1.33;;;;;;;-2.29;67.47;101332.97;5002286;28;20517;-70
2021/04/26 03:38:41;;;;;;;4.27;1.33;;;;;;;-2.28;68.11;101340.81;4998103;28;20034;-70
2021/04/26 03:41:07;;;;;;;3.00;1.23;;;;;;;-2.25;67.97;101338.41;5001801;28;20036;-70
2021/04/26 03:43:33;;;;;;;5.03;1.40;;;;;;;-2.26;68.61;101336.59;5004041;28;20113;-71
2021/04/26 03:46:06;;;;;;;6.03;2.20;;;;;;;-2.25;68.42;101341.00;4999808;28;20045;-71
2021/04/26 03:49:10;;;;;;;3.73;1.63;;;;;;;-2.24;68.62;101337.59;4977978;28;20125;-71
2021/04/26 03:52:00;;;;;;;3.93;1.37;;;;;;;-2.20;68.90;101338.69;4962474;28;20082;-73
2021/04/26 03:54:44;;;;;;;5.37;1.90;;;;;;;-2.23;67.92;101336.81;4996511;28;20053;-71
2021/04/26 03:57:10;;;;;;;11.00;5.57;;;;;;;-2.19;67.35;101339.56;5001854;28;20046;-71
2021/04/26 03:59:36;;;;;;;5.93;3.10;;;;;;;-2.19;67.31;101339.56;5003670;28;20053;-71
2021/04/26 04:02:01;;;;;;;5.50;2.37;;;;;;;-2.22;67.80;101341.16;4999750;28;20084;-70
2021/04/26 04:04:35;;;;;;;7.57;2.57;;;;;;;-2.29;68.91;101335.53;4999308;28;20506;-71
2021/04/26 04:07:29;;;;;;;5.13;1.70;;;;;;;-2.27;69.07;101334.84;4992294;28;20034;-70
2021/04/26 04:10:33;;;;;;;6.87;2.00;;;;;;;-2.18;67.71;101331.00;5000447;28;20074;-71
2021/04/26 04:13:17;;;;;;;6.00;2.13;;;;;;;-2.17;68.17;101333.69;5000326;28;20112;-71
2021/04/26 04:15:44;;;;;;;5.03;2.03;;;;;;;-2.13;67.75;101329.56;5000193;28;20506;-71
2021/04/26 04:18:14;;;;;;;5.97;1.80;;;;;;;-2.08;67.07;101329.03;4998635;28;20525;-71
2021/04/26 04:20:41;;;;;;;5.23;1.67;;;;;;;-2.02;67.40;101338.81;5000700;28;20045;-71
2021/04/26 04:23:07;;;;;;;9.33;3.00;;;;;;;-2.02;66.08;101328.47;4996276;28;20038;-71
2021/04/26 04:25:32;;;;;;;23.63;2.23;;;;;;;-2.05;66.31;101323.13;5003904;28;20068;-70
2021/04/26 04:27:59;;;;;;;4.50;1.80;;;;;;;-2.14;65.54;101322.63;5002413;28;20030;-70
2021/04/26 04:30:24;;;;;;;6.10;1.80;;;;;;;-2.21;66.61;101330.00;5000069;28;20037;-70
2021/04/26 04:33:19;;;;;;;5.33;1.70;;;;;;;-2.10;69.13;101329.75;5002977;28;20046;-70
2021/04/26 04:35:47;;;;;;;5.17;1.97;;;;;;;-2.02;68.29;101338.81;5002250;28;20057;-70
2021/04/26 04:38:35;;;;;;;5.87;1.90;;;;;;;-1.91;67.29;101336.84;4999968;28;20054;-70
2021/04/26 04:41:32;;;;;;;4.10;1.47;;;;;;;-1.81;66.77;101329.72;4980338;28;20049;-70
2021/04/26 04:43:59;;;;;;;6.00;1.63;;;;;;;-1.73;66.73;101329.25;5001128;28;20102;-71
2021/04/26 04:46:25;;;;;;;4.87;1.80;;;;;;;-1.64;67.18;101334.94;5000301;28;20030;-70
2021/04/26 04:48:54;;;;;;;7.57;2.90;;;;;;;-1.57;68.42;101327.59;4996471;28;20117;-70
2021/04/26 04:51:23;;;;;;;5.73;2.00;;;;;;;-1.44;67.88;101325.66;4999523;28;20030;-70
2021/04/26 04:54:01;;;;;;;3.73;1.70;;;;;;;-1.29;66.86;101336.00;4983941;28;20041;-70
2021/04/26 04:56:35;;;;;;;5.23;2.00;;;;;;;-1.15;66.80;101324.69;5004931;28;20026;-71
2021/04/26 04:59:01;;;;;;;4.10;1.57;;;;;;;-1.07;65.33;101323.41;4992459;28;20084;-70
2021/04/26 05:01:27;;;;;;;4.60;1.23;;;;;;;-1.01;65.49;101334.06;4998649;28;20030;-70
2021/04/26 05:04:11;;;;;;;11.10;5.37;;;;;;;-0.92;65.25;101324.22;4999438;28;20053;-70
2021/04/26 05:06:55;;;;;;;5.60;2.13;;;;;;;-0.78;64.97;101319.75;4996849;28;20505;-70
2021/04/26 05:09:38;;;;;;;9.50;2.27;;;;;;;-0.65;65.15;101317.81;5000329;28;20124;-70
2021/04/26 05:12:36;;;;;;;4.73;1.70;;;;;;;-0.51;64.91;101322.88;4999215;28;20046;-70
2021/04/26 05:15:20;;;;;;;4.70;1.57;;;;;;;-0.33;64.27;101311.66;4999636;28;20189;-72
2021/04/26 05:17:45;;;;;;;4.63;1.50;;;;;;;-0.27;63.65;101317.13;5000528;28;20593;-70
2021/04/26 05:20:11;;;;;;;4.20;1.60;;;;;;;-0.17;63.78;101316.78;5003154;28;20064;-70
2021/04/26 05:22:38;;;;;;;5.17;1.50;;;;;;;-0.09;63.70;101307.66;5000696;28;20034;-70
2021/04/26 05:25:06;;;;;;;5.30;1.90;;;;;;;0.04;62.42;101322.13;4999574;28;20037;-70
2021/04/26 05:27:32;;;;;;;4.40;1.43;;;;;;;0.14;62.67;101326.97;4979383;28;20030;-70
2021/04/26 05:29:58;;;;;;;4.40;1.53;;;;;;;0.26;62.41;101320.59;4985044;28;20401;-70
2021/04/26 05:32:23;;;;;;;6.03;1.63;;;;;;;0.37;61.58;101322.00;5000809;28;20129;-70
2021/04/26 05:34:52;;;;;;;4.53;1.70;;;;;;;0.47;61.47;101312.91;5001508;28;20037;-71
2021/04/26 05:37:17;;;;;;;3.27;1.57;;;;;;;0.58;61.67;101315.22;5001087;28;20030;-70
2021/04/26 05:39:43;;;;;;;5.13;1.90;;;;;;;0.66;61.38;101315.56;4999830;28;20040;-71
2021/04/26 05:42:08;;;;;;;6.30;2.37;;;;;;;0.74;61.55;101313.34;4998654;28;20087;-71
2021/04/26 05:44:35;;;;;;;4.50;1.57;;;;;;;0.86;60.66;101312.19;5001196;28;20026;-70
2021/04/26 05:47:19;;;;;;;5.87;1.80;;;;;;;0.97;60.68;101314.34;5005354;28;20033;-70
2021/04/26 05:49:44;;;;;;;4.67;1.77;;;;;;;1.08;60.51;101311.44;5001644;28;20030;-70
2021/04/26 05:52:10;;;;;;;3.60;1.40;;;;;;;1.22;60.25;101313.75;5001509;28;20034;-70
2021/04/26 05:54:35;;;;;;;4.30;1.53;;;;;;;1.30;59.97;101310.66;4999905;28;20137;-70
2021/04/26 05:57:01;;;;;;;2.70;1.17;;;;;;;1.39;60.21;101307.59;5002448;28;20033;-71
2021/04/26 05:59:26;;;;;;;4.80;1.40;;;;;;;1.44;59.92;101307.78;5000789;28;20040;-71
2021/04/26 06:01:51;;;;;;;3.43;1.43;;;;;;;1.58;59.25;101306.66;5001782;28;20080;-70
2021/04/26 06:04:17;;;;;;;4.35;1.50;;;;;;;1.72;59.19;101300.31;4999683;28;20034;-71
2021/04/26 06:06:42;;;;;;;4.57;1.92;;;;;;;1.77;58.65;101300.50;5002055;28;20478;-70
2021/04/26 06:09:07;;;;;;;2.50;1.10;;;;;;;1.90;59.31;101296.72;5001314;28;20034;-70
2021/04/26 06:11:33;;;;;;;2.58;1.20;;;;;;;2.02;59.48;101284.19;4999627;28;20551;-70
2021/04/26 06:13:58;;;;;;;4.90;1.75;;;;;;;2.19;59.11;101290.94;5006126;28;20037;-69
2021/04/26 06:16:23;;;;;;;5.78;2.00;;;;;;;2.32;58.22;101288.84;5004723;28;20050;-70
2021/04/26 06:18:49;;;;;;;5.50;2.22;;;;;;;2.48;57.47;101291.22;5004194;28;20073;-70
2021/04/26 06:21:14;;;;;;;5.65;1.42;;;;;;;2.59;57.55;101284.72;5005714;28;20046;-70
2021/04/26 06:23:39;;;;;;;3.97;1.63;;;;;;;2.75;57.06;101280.06;5003436;28;20034;-71
2021/04/26 06:26:05;;;;;;;6.88;1.80;;;;;;;2.88;56.60;101286.63;5004982;28;20417;-70
2021/04/26 06:28:30;;;;;;;4.82;2.03;;;;;;;3.02;56.57;101285.44;5005502;28;20549;-70
2021/04/26 06:30:56;;;;;;;4.25;2.13;;;;;;;3.18;56.20;101279.03;5003099;28;20065;-70
2021/04/26 06:33:21;;;;;;;4.40;1.80;;;;;;;3.34;55.92;101283.06;5005084;28;20030;-70
2021/04/26 06:35:49;;;;;;;3.25;1.27;;;;;;;3.47;55.00;101280.94;5004579;28;20042;-69
2021/04/26 06:38:15;;;;;;;2.53;1.23;;;;;;;3.60;54.56;101274.41;5002989;28;20065;-71
2021/04/26 06:40:41;;;;;;;3.63;1.30;;;;;;;3.78;53.74;101281.13;5005604;28;20645;-70
2021/04/26 06:43:07;;;;;;;4.13;1.67;;;;;;;3.93;53.34;101276.41;5004081;28;20133;-69
2021/04/26 06:45:33;;;;;;;5.43;1.38;;;;;;;4.06;52.79;101278.56;5003317;28;20478;-70
2021/04/26 06:47:59;;;;;;;4.40;1.38;;;;;;;4.14;52.54;101277.09;5005585;28;20398;-70
2021/04/26 06:50:25;;;;;;;3.78;1.35;;;;;;;4.30;52.46;101277.56;5003712;28;20026;-70
2021/04/26 06:52:55;;;;;;;5.22;1.90;;;;;;;4.41;51.88;101270.06;5002070;28;20046;-70
2021/04/26 06:55:22;;;;;;;5.55;2.85;;;;;;;4.54;51.92;101264.38;5005573;28;20044;-70
2021/04/26 06:57:48;;;;;;;7.65;2.13;;;;;;;4.64;51.92;101257.66;5003774;28;20038;-70
2021/04/26 07:00:14;;;;;;;4.82;1.48;;;;;;;4.72;51.72;101251.84;5003177;28;20038;-70
2021/04/26 07:02:40;;;;;;;4.75;2.00;;;;;;;4.80;51.61;101259.91;5004904;28;20041;-70
2021/04/26 07:05:07;;;;;;;3.83;1.50;;;;;;;4.88;51.15;101249.66;5003449;28;20030;-69
2021/04/26 07:07:32;;;;;;;2.28;1.05;;;;;;;5.00;50.20;101250.91;5003416;28;20088;-71
2021/04/26 07:09:58;;;;;;;3.13;1.00;;;;;;;5.13;49.46;101252.09;5005212;28;20486;-71
2021/04/26 07:12:23;;;;;;;4.03;1.10;;;;;;;5.26;48.76;101243.72;5002302;28;20053;-71
2021/04/26 07:14:49;;;;;;;2.55;0.90;;;;;;;5.43;48.30;101252.06;5003240;28;20034;-71
2021/04/26 07:17:14;;;;;;;3.42;1.08;;;;;;;5.64;44.66;101245.59;5002590;28;20034;-70
2021/04/26 07:19:40;;;;;;;2.25;0.65;;;;;;;5.76;43.47;101243.28;5005001;28;20041;-71
2021/04/26 07:22:05;;;;;;;2.45;0.50;;;;;;;5.84;42.83;101252.22;5002556;28;20105;-71
2021/04/26 07:24:30;;;;;;;3.00;0.60;;;;;;;6.05;41.64;101240.50;5003089;28;20095;-71
2021/04/26 07:26:56;;;;;;;2.30;0.47;;;;;;;6.12;42.01;101247.66;5004910;28;20036;-70
2021/04/26 07:29:21;;;;;;;3.72;0.52;;;;;;;6.15;41.67;101238.13;5000936;28;20124;-71
2021/04/26 07:31:46;;;;;;;3.17;0.60;;;;;;;6.24;40.55;101228.72;5003496;28;20037;-70
2021/04/26 07:34:12;;;;;;;4.40;0.50;;;;;;;6.30;40.47;101234.97;5003907;28;20556;-71
2021/04/26 07:36:38;;;;;;;3.17;0.70;;;;;;;6.36;40.66;101237.72;5001885;28;20034;-71
2021/04/26 07:39:04;;;;;;;3.70;0.40;;;;;;;6.50;39.76;101240.69;5004403;28;20034;-71
2021/04/26 07:41:30;;;;;;;2.40;0.40;;;;;;;6.52;38.28;101239.00;5003104;28;20494;-71
2021/04/26 07:43:56;;;;;;;2.30;0.85;;;;;;;6.54;38.58;101237.25;5002053;28;20035;-71
2021/04/26 07:46:21;;;;;;;2.22;0.80;;;;;;;6.60;38.22;101241.75;5004525;28;20045;-70
2021/04/26 07:48:46;;;;;;;3.15;0.60;;;;;;;6.58;39.52;101239.09;5002646;28;20034;-71
2021/04/26 07:51:12;;;;;;;2.97;0.70;;;;;;;6.74;40.45;101249.94;5002442;28;20437;-71
2021/04/26 07:53:38;;;;;;;2.33;0.70;;;;;;;6.68;39.40;101240.19;5004283;28;20409;-71
2021/04/26 07:56:04;;;;;;;3.28;0.57;;;;;;;6.65;38.84;101233.97;5001972;28;20074;-70
2021/04/26 07:58:29;;;;;;;3.75;0.80;;;;;;;6.65;40.32;101236.59;5002929;28;20161;-70
2021/04/26 08:00:54;;;;;;;3.83;0.75;;;;;;;6.75;40.47;101230.69;5003797;28;20084;-71
2021/04/26 08:03:20;;;;;;;2.35;0.80;;;;;;;6.86;40.27;101223.03;5001185;28;20128;-71
2021/04/26 08:05:46;;;;;;;3.28;0.80;;;;;;;6.87;40.63;101236.19;4997274;28;20039;-70
2021/04/26 08:08:11;;;;;;;4.13;0.73;;;;;;;7.00;41.28;101238.22;5001963;28;20040;-71
2021/04/26 08:10:37;;;;;;;2.63;0.73;;;;;;;7.09;39.47;101234.88;5002033;28;20101;-70
2021/04/26 08:13:02;;;;;;;4.38;0.80;;;;;;;7.13;39.20;101244.59;4994080;28;20042;-71
2021/04/26 08:15:28;;;;;;;2.05;0.60;;;;;;;7.10;37.96;101239.28;5002102;28;20070;-71
2021/04/26 08:17:53;;;;;;;4.88;0.70;;;;;;;7.08;39.12;101234.88;5001836;28;20034;-70
2021/04/26 08:20:19;;;;;;;2.80;0.60;;;;;;;7.20;38.73;101227.19;5002400;28;20529;-71
2021/04/26 08:22:44;;;;;;;2.42;0.60;;;;;;;7.24;38.06;101227.28;5002930;28;20124;-71
2021/04/26 08:25:10;;;;;;;3.83;0.80;;;;;;;7.33;37.89;101230.94;5000356;28;20042;-71
2021/04/26 08:27:35;;;;;;;2.67;0.47;;;;;;;7.38;36.29;101226.66;5001662;28;20026;-71
2021/04/26 08:30:02;;;;;;;2.63;0.60;;;;;;;7.54;37.00;101230.44;5000734;28;20483;-70
2021/04/26 08:32:27;;;;;;;3.92;0.77;;;;;;;7.48;37.69;101220.72;5000876;28;20037;-70
2021/04/26 08:34:53;;;;;;;3.55;0.75;;;;;;;7.45;37.09;101231.16;5002492;28;20418;-71
2021/04/26 08:37:18;;;;;;;2.83;0.68;;;;;;;7.40;37.72;101215.31;5000779;28;20410;-70
2021/04/26 08:39:44;;;;;;;3.17;0.80;;;;;;;7.49;37.52;101224.22;5001970;28;20539;-70
2021/04/26 08:42:09;;;;;;;3.63;0.80;;;;;;;7.67;37.02;101229.78;5001872;28;20073;-71
2021/04/26 08:44:35;;;;;;;2.67;1.00;;;;;;;7.71;37.18;101210.59;5000948;28;20046;-70
2021/04/26 08:47:00;;;;;;;2.72;0.60;;;;;;;7.84;36.29;101211.69;5003485;28;20034;-70
2021/04/26 08:49:26;;;;;;;2.72;0.80;;;;;;;7.90;37.58;101210.03;4999618;28;20066;-70
2021/04/26 08:51:51;;;;;;;2.63;0.65;;;;;;;8.08;37.59;101205.91;5000871;28;20117;-71
2021/04/26 08:54:18;;;;;;;3.78;0.85;;;;;;;8.19;36.82;101192.91;5003307;28;20417;-71
2021/04/26 08:56:45;;;;;;;11.25;1.00;;;;;;;8.15;36.76;101197.28;5000377;28;20037;-70
2021/04/26 08:59:11;;;;;;;2.85;0.88;;;;;;;8.00;37.62;101211.06;5002089;28;20069;-70
2021/04/26 09:01:37;;;;;;;3.60;0.85;;;;;;;7.75;37.51;101206.28;5000160;28;20481;-71
2021/04/26 09:04:07;;;;;;;2.25;0.68;;;;;;;7.51;39.09;101230.38;4996729;28;20048;-70
2021/04/26 09:06:53;;;;;;;5.22;0.80;;;;;;;7.54;39.15;101204.16;5000143;28;20034;-70
2021/04/26 09:09:37;;;;;;;2.10;0.70;;;;;;;7.66;37.96;101207.00;5000377;28;20040;-70
2021/04/26 09:12:05;;;;;;;2.47;0.68;;;;;;;7.81;37.89;101214.28;4999556;28;20035;-70
2021/04/26 09:14:37;;;;;;;4.68;0.88;;;;;;;8.02;37.23;101216.34;5000278;28;20038;-70
2021/04/26 09:17:21;;;;;;;;;;;;;;;7.96;37.62;101197.84;5002727;28;20398;-70
2021/04/26 09:19:46;;;;;;;2.70;0.60;;;;;;;8.22;37.06;101199.09;5002094;28;19956;-70
2021/04/26 09:22:13;;;;;;;4.60;0.60;;;;;;;8.26;35.46;101190.41;5052470;23;20072;-77
2021/04/26 09:24:39;;;;;;;6.68;0.77;;;;;;;8.30;35.84;101196.56;5071095;28;20036;-77
2021/04/26 09:27:10;;;;;;;3.45;0.70;;;;;;;7.94;35.85;101199.56;5070213;28;20043;-77
2021/04/26 09:29:36;;;;;;;2.78;0.50;;;;;;;7.83;36.29;101195.03;5067669;28;20048;-77
2021/04/26 09:32:08;;;;;;;2.58;0.82;;;;;;;7.78;36.81;101182.66;5070826;28;20086;-77
2021/04/26 09:34:48;;;;;;;2.67;0.40;;;;;;;7.85;36.60;101174.03;5068486;28;20037;-77
2021/04/26 09:37:29;;;;;;;3.03;0.85;;;;;;;7.82;35.97;101169.59;5071707;28;20347;-77
2021/04/26 09:40:07;;;;;;;2.15;0.40;;;;;;;8.06;34.69;101178.72;5069248;28;20028;-77
2021/04/26 09:42:47;;;;;;;4.18;1.45;;;;;;;8.17;34.31;101181.50;5070838;28;20036;-77
2021/04/26 09:45:34;;;;;;;5.82;1.92;;;;;;;8.35;34.97;101177.34;5070351;28;20033;-77
2021/04/26 09:48:09;;;;;;;2.92;0.90;;;;;;;8.74;33.92;101162.97;5088276;28;20567;-76
2021/04/26 09:50:49;;;;;;;3.20;0.50;;;;;;;9.04;34.64;101158.94;5076177;28;20127;-77
2021/04/26 09:53:14;;;;;;;3.22;0.88;;;;;;;9.30;33.91;101150.38;5071742;28;20074;-77
2021/04/26 09:55:39;;;;;;;1.85;0.60;;;;;;;9.30;32.43;101145.09;5075714;28;20439;-76
2021/04/26 09:58:05;;;;;;;3.58;0.45;;;;;;;8.99;32.44;101158.00;5076368;28;20480;-77
2021/04/26 10:00:30;;;;;;;2.63;0.50;;;;;;;8.52;32.46;101153.06;5076271;28;20527;-77
2021/04/26 10:02:56;;;;;;;1.90;0.60;;;;;;;8.29;32.57;101165.91;5076205;28;20043;-76
2021/04/26 10:05:21;;;;;;;1.55;0.55;;;;;;;8.31;32.34;101146.63;5076011;28;20040;-77
2021/04/26 10:07:48;;;;;;;1.23;0.50;;;;;;;8.58;32.88;101147.88;5075609;28;20040;-76
2021/04/26 10:10:14;;;;;;;1.75;0.60;;;;;;;8.77;31.83;101155.09;5074665;28;20036;-77
2021/04/26 10:12:39;;;;;;;5.05;0.90;;;;;;;8.89;31.51;101142.97;5073956;28;20036;-77
2021/04/26 10:15:05;;;;;;;2.60;0.60;;;;;;;9.24;31.03;101143.28;5074618;28;20028;-77
2021/04/26 10:17:32;;;;;;;1.90;0.50;;;;;;;9.41;29.37;101143.47;5075476;28;20047;-77
2021/04/26 10:19:57;;;;;;;1.40;0.50;;;;;;;9.32;29.64;101141.59;5072541;28;20124;-77
2021/04/26 10:22:38;;;;;;;3.83;0.60;;;;;;;8.88;29.59;101131.56;5075558;28;20064;-76
2021/04/26 10:25:08;;;;;;;1.17;0.40;;;;;;;8.82;30.27;101141.13;5075290;28;20090;-77
2021/04/26 10:27:37;;;;;;;1.70;0.50;;;;;;;8.91;30.73;101125.44;5071372;28;20365;-76
2021/04/26 10:30:14;;;;;;;2.22;0.75;;;;;;;9.20;30.93;101118.69;5073969;28;20115;-77
2021/04/26 10:33:00;;;;;;;3.58;0.70;;;;;;;9.57;30.37;101113.72;5073518;28;20580;-77
2021/04/26 10:35:42;;;;;;;1.00;0.32;;;;;;;9.64;30.24;101090.91;5071307;28;20086;-77
2021/04/26 10:38:35;;;;;;;3.30;0.57;;;;;;;9.57;30.19;101099.66;5069942;28;20090;-76
2021/04/26 10:41:06;;;;;;;1.33;0.50;;;;;;;9.73;30.95;101093.63;5068661;28;20037;-76
2021/04/26 10:43:32;;;;;;;1.95;0.50;;;;;;;9.79;30.46;101095.41;5073528;28;20134;-76
2021/04/26 10:46:16;;;;;;;4.32;0.68;;;;;;;9.78;29.68;101091.03;5072485;28;20037;-76
2021/04/26 10:49:15;;;;;;;2.70;0.75;;;;;;;9.98;29.67;101093.75;5073702;28;20024;-76
2021/04/26 10:51:41;;;;;;;4.00;0.90;;;;;;;9.92;28.88;101088.44;5069734;28;20044;-76
2021/04/26 10:54:06;;;;;;;3.65;1.02;;;;;;;9.93;29.60;101082.28;5073653;28;20029;-76
2021/04/26 10:56:33;;;;;;;3.47;1.40;;;;;;;10.12;28.58;101078.00;5073365;28;20037;-76
2021/04/26 10:59:17;;;;;;;3.63;0.70;;;;;;;10.09;27.92;101082.41;5070159;28;20393;-77
2021/04/26 11:01:48;;;;;;;2.38;0.60;;;;;;;9.76;28.10;101082.22;5066574;28;20555;-76
2021/04/26 11:04:13;;;;;;;4.22;1.35;;;;;;;9.51;28.89;101082.06;5068227;28;20123;-76
2021/04/26 11:06:39;;;;;;;1.55;0.43;;;;;;;9.44;29.22;101078.50;5073492;28;20124;-76
2021/04/26 11:09:16;;;;;;;5.35;0.90;;;;;;;9.48;29.52;101070.59;5066711;28;20472;-76
2021/04/26 11:11:50;;;;;;;3.47;0.70;;;;;;;9.83;28.46;101068.19;5072933;28;20028;-76
2021/04/26 11:14:24;;;;;;;2.45;0.73;;;;;;;10.40;28.71;101072.00;5073209;28;20497;-76
2021/04/26 11:16:58;;;;;;;1.77;0.50;;;;;;;10.71;28.10;101066.78;5069905;28;20044;-76
2021/04/26 11:19:24;;;;;;;1.35;0.45;;;;;;;10.39;27.29;101059.66;5073262;28;20036;-76
2021/04/26 11:21:51;;;;;;;1.45;0.40;;;;;;;10.13;28.37;101051.63;5072769;28;20082;-76
2021/04/26 11:24:24;;;;;;;2.47;0.70;;;;;;;10.14;29.23;101055.13;5073079;28;20036;-76
2021/04/26 11:27:08;;;;;;;2.13;0.70;;;;;;;10.26;28.43;101052.56;5080187;28;20094;-76
2021/04/26 11:29:34;;;;;;;2.40;0.70;;;;;;;10.45;28.89;101049.16;5071305;28;20037;-76
2021/04/26 11:32:04;;;;;;;2.83;0.80;;;;;;;10.92;28.67;101045.69;5072632;28;20476;-76
2021/04/26 11:34:50;;;;;;;2.15;0.68;;;;;;;11.03;26.30;101045.72;5072847;28;20488;-76
2021/04/26 11:37:19;;;;;;;1.92;0.70;;;;;;;11.05;26.29;101030.72;5070768;28;20068;-76
2021/04/26 11:39:46;;;;;;;3.85;0.90;;;;;;;11.44;27.06;101030.69;5071456;28;20063;-76
2021/04/26 11:42:19;;;;;;;3.10;0.90;;;;;;;11.74;26.48;101030.63;5071013;28;20021;-76